createdAt,value
2017-07-03T00:00:08.893Z,0
2017-07-03T00:00:35.008Z,0
2017-07-03T00:01:01.104Z,0
2017-07-03T00:01:27.239Z,0
2017-07-03T00:01:53.355Z,0
2017-07-03T00:02:19.496Z,0
2017-07-03T00:02:45.656Z,0
2017-07-03T00:03:11.808Z,0
2017-07-03T00:03:37.936Z,0
2017-07-03T00:04:04.026Z,0
2017-07-03T00:04:30.138Z,0
2017-07-03T00:04:56.255Z,0
2017-07-03T00:05:22.349Z,0
2017-07-03T00:05:48.462Z,0
2017-07-03T00:06:14.597Z,0
2017-07-03T00:06:40.721Z,0
2017-07-03T00:07:06.834Z,0
2017-07-03T00:07:32.941Z,0
2017-07-03T00:07:59.041Z,0
2017-07-03T00:08:25.212Z,0
2017-07-03T00:08:51.334Z,0
2017-07-03T00:09:17.453Z,0
2017-07-03T00:09:43.643Z,0
2017-07-03T00:10:09.767Z,0
2017-07-03T00:10:35.883Z,0
2017-07-03T00:11:01.988Z,0
2017-07-03T00:11:28.142Z,0
2017-07-03T00:11:54.279Z,0
2017-07-03T00:12:20.434Z,0
2017-07-03T00:12:46.567Z,0
2017-07-03T00:13:12.678Z,0
2017-07-03T00:13:38.875Z,0
2017-07-03T00:14:05.037Z,0
2017-07-03T00:14:31.163Z,0
2017-07-03T00:14:57.257Z,0
2017-07-03T00:15:23.371Z,0
2017-07-03T00:15:49.499Z,0
2017-07-03T00:16:15.633Z,0
2017-07-03T00:16:41.742Z,0
2017-07-03T00:17:07.842Z,0
2017-07-03T00:17:33.947Z,0
2017-07-03T00:18:00.061Z,0
2017-07-03T00:18:26.159Z,0
2017-07-03T00:18:52.317Z,0
2017-07-03T00:19:18.463Z,0
2017-07-03T00:19:44.551Z,0
2017-07-03T00:20:10.654Z,0
2017-07-03T00:20:36.805Z,0
2017-07-03T00:21:02.938Z,0
2017-07-03T00:21:29.054Z,0
2017-07-03T00:21:55.149Z,0
2017-07-03T00:22:21.255Z,0
2017-07-03T00:22:47.400Z,0
2017-07-03T00:23:13.488Z,0
2017-07-03T00:23:39.653Z,0
2017-07-03T00:24:05.777Z,0
2017-07-03T00:24:31.916Z,0
2017-07-03T00:24:58.052Z,0
2017-07-03T00:25:24.208Z,0
2017-07-03T00:25:50.352Z,0
2017-07-03T00:26:16.473Z,0
2017-07-03T00:26:42.636Z,0
2017-07-03T00:27:08.800Z,0
2017-07-03T00:27:34.922Z,0
2017-07-03T00:28:01.039Z,0
2017-07-03T00:28:27.168Z,0
2017-07-03T00:28:53.350Z,0
2017-07-03T00:29:19.511Z,0
2017-07-03T00:29:45.660Z,0
2017-07-03T00:30:11.819Z,0
2017-07-03T00:30:37.907Z,0
2017-07-03T00:31:04.032Z,0
2017-07-03T00:31:30.159Z,0
2017-07-03T00:31:56.283Z,0
2017-07-03T00:32:22.410Z,0
2017-07-03T00:32:48.524Z,0
2017-07-03T00:33:14.626Z,0
2017-07-03T00:33:40.759Z,0
2017-07-03T00:34:06.869Z,0
2017-07-03T00:34:32.967Z,0
2017-07-03T00:34:59.155Z,0
2017-07-03T00:35:25.273Z,0
2017-07-03T00:35:51.371Z,0
2017-07-03T00:36:17.533Z,0
2017-07-03T00:36:43.651Z,0
2017-07-03T00:37:09.757Z,0
2017-07-03T00:37:35.869Z,0
2017-07-03T00:38:02.040Z,0
2017-07-03T00:38:28.260Z,0
2017-07-03T00:38:54.372Z,0
2017-07-03T00:39:20.494Z,0
2017-07-03T00:39:46.656Z,0
2017-07-03T00:40:12.779Z,0
2017-07-03T00:40:38.865Z,0
2017-07-03T00:41:05.029Z,0
2017-07-03T00:41:31.126Z,0
2017-07-03T00:41:57.217Z,0
2017-07-03T00:42:23.323Z,0
2017-07-03T00:42:49.451Z,0
2017-07-03T00:43:15.613Z,0
2017-07-03T00:43:41.771Z,0
2017-07-03T00:44:07.933Z,0
2017-07-03T00:44:34.044Z,0
2017-07-03T00:45:00.215Z,0
2017-07-03T00:45:26.302Z,0
2017-07-03T00:45:52.418Z,0
2017-07-03T00:46:18.515Z,0
2017-07-03T00:46:44.675Z,0
2017-07-03T00:47:10.769Z,0
2017-07-03T00:47:36.858Z,0
2017-07-03T00:48:02.960Z,0
2017-07-03T00:48:29.085Z,0
2017-07-03T00:48:55.217Z,0
2017-07-03T00:49:21.310Z,0
2017-07-03T00:49:47.453Z,0
2017-07-03T00:50:13.585Z,0
2017-07-03T00:50:39.731Z,0
2017-07-03T00:51:05.820Z,0
2017-07-03T00:51:31.929Z,0
2017-07-03T00:51:58.024Z,0
2017-07-03T00:52:24.138Z,0
2017-07-03T00:52:50.296Z,0
2017-07-03T00:53:16.424Z,0
2017-07-03T00:53:42.550Z,0
2017-07-03T00:54:08.722Z,0
2017-07-03T00:54:34.862Z,0
2017-07-03T00:55:01.028Z,0
2017-07-03T00:55:27.125Z,0
2017-07-03T00:55:53.214Z,0
2017-07-03T00:56:19.318Z,0
2017-07-03T00:56:45.418Z,0
2017-07-03T00:57:11.553Z,0
2017-07-03T00:57:37.732Z,0
2017-07-03T00:58:03.893Z,0
2017-07-03T00:58:30.025Z,0
2017-07-03T00:58:56.151Z,0
2017-07-03T00:59:22.272Z,0
2017-07-03T00:59:48.378Z,0
2017-07-03T01:00:14.475Z,0
2017-07-03T01:00:40.566Z,0
2017-07-03T01:01:06.720Z,0
2017-07-03T01:01:32.825Z,0
2017-07-03T01:01:58.915Z,0
2017-07-03T01:02:25.014Z,0
2017-07-03T01:02:51.120Z,0
2017-07-03T01:03:17.258Z,0
2017-07-03T01:03:43.427Z,0
2017-07-03T01:04:09.560Z,0
2017-07-03T01:04:35.653Z,0
2017-07-03T01:05:01.759Z,0
2017-07-03T01:05:27.846Z,0
2017-07-03T01:05:54.021Z,0
2017-07-03T01:06:20.125Z,0
2017-07-03T01:06:46.214Z,0
2017-07-03T01:07:12.336Z,0
2017-07-03T01:07:38.464Z,0
2017-07-03T01:08:04.582Z,0
2017-07-03T01:08:30.747Z,0
2017-07-03T01:08:56.882Z,0
2017-07-03T01:09:23.004Z,0
2017-07-03T01:09:49.142Z,0
2017-07-03T01:10:15.300Z,0
2017-07-03T01:10:41.420Z,0
2017-07-03T01:11:07.554Z,0
2017-07-03T01:11:33.701Z,0
2017-07-03T01:11:59.835Z,0
2017-07-03T01:12:25.944Z,0
2017-07-03T01:12:52.040Z,0
2017-07-03T01:13:18.152Z,0
2017-07-03T01:13:44.259Z,0
2017-07-03T01:14:10.411Z,0
2017-07-03T01:14:36.523Z,0
2017-07-03T01:15:02.624Z,0
2017-07-03T01:15:28.730Z,0
2017-07-03T01:15:54.848Z,0
2017-07-03T01:16:20.942Z,0
2017-07-03T01:16:47.059Z,0
2017-07-03T01:17:13.165Z,0
2017-07-03T01:17:39.263Z,0
2017-07-03T01:18:05.399Z,0
2017-07-03T01:18:31.574Z,0
2017-07-03T01:18:57.734Z,0
2017-07-03T01:19:23.893Z,0
2017-07-03T01:19:50.041Z,0
2017-07-03T01:20:16.204Z,0
2017-07-03T01:20:42.321Z,0
2017-07-03T01:21:08.419Z,0
2017-07-03T01:21:34.569Z,0
2017-07-03T01:22:00.672Z,0
2017-07-03T01:22:26.807Z,0
2017-07-03T01:22:52.942Z,0
2017-07-03T01:23:19.042Z,0
2017-07-03T01:23:45.148Z,0
2017-07-03T01:24:11.263Z,0
2017-07-03T01:24:37.358Z,0
2017-07-03T01:25:03.518Z,0
2017-07-03T01:25:29.637Z,0
2017-07-03T01:25:55.753Z,0
2017-07-03T01:26:21.888Z,0
2017-07-03T01:26:47.985Z,0
2017-07-03T01:27:14.074Z,0
2017-07-03T01:27:40.180Z,0
2017-07-03T01:28:06.278Z,0
2017-07-03T01:28:32.391Z,0
2017-07-03T01:28:58.545Z,0
2017-07-03T01:29:24.650Z,0
2017-07-03T01:29:50.735Z,0
2017-07-03T01:30:16.858Z,0
2017-07-03T01:30:43.018Z,0
2017-07-03T01:31:09.134Z,0
2017-07-03T01:31:35.230Z,0
2017-07-03T01:32:01.393Z,0
2017-07-03T01:32:27.541Z,0
2017-07-03T01:32:53.724Z,0
2017-07-03T01:33:19.838Z,0
2017-07-03T01:33:45.985Z,0
2017-07-03T01:34:12.147Z,0
2017-07-03T01:34:38.288Z,0
2017-07-03T01:35:04.435Z,0
2017-07-03T01:35:30.539Z,0
2017-07-03T01:35:56.685Z,0
2017-07-03T01:36:22.776Z,0
2017-07-03T01:36:48.939Z,0
2017-07-03T01:37:15.062Z,0
2017-07-03T01:37:41.175Z,0
2017-07-03T01:38:07.332Z,0
2017-07-03T01:38:33.475Z,0
2017-07-03T01:38:59.607Z,0
2017-07-03T01:39:25.700Z,0
2017-07-03T01:39:51.815Z,0
2017-07-03T01:40:17.975Z,0
2017-07-03T01:40:44.099Z,0
2017-07-03T01:41:10.213Z,0
2017-07-03T01:41:36.316Z,0
2017-07-03T01:42:02.418Z,0
2017-07-03T01:42:28.506Z,0
2017-07-03T01:42:54.631Z,0
2017-07-03T01:43:20.762Z,0
2017-07-03T01:43:46.877Z,0
2017-07-03T01:44:12.999Z,0
2017-07-03T01:44:39.139Z,0
2017-07-03T01:45:05.269Z,0
2017-07-03T01:45:31.366Z,0
2017-07-03T01:45:57.480Z,0
2017-07-03T01:46:23.581Z,0
2017-07-03T01:46:49.713Z,0
2017-07-03T01:47:15.800Z,0
2017-07-03T01:47:41.927Z,0
2017-07-03T01:48:08.086Z,0
2017-07-03T01:48:34.255Z,0
2017-07-03T01:49:00.450Z,0
2017-07-03T01:49:26.571Z,0
2017-07-03T01:49:52.674Z,0
2017-07-03T01:50:18.835Z,0
2017-07-03T01:50:44.951Z,0
2017-07-03T01:51:11.052Z,0
2017-07-03T01:51:37.156Z,0
2017-07-03T01:52:03.246Z,0
2017-07-03T01:52:29.365Z,0
2017-07-03T01:52:55.552Z,0
2017-07-03T01:53:21.698Z,0
2017-07-03T01:53:47.835Z,0
2017-07-03T01:54:14.023Z,0
2017-07-03T01:54:40.174Z,0
2017-07-03T01:55:06.284Z,0
2017-07-03T01:55:32.366Z,0
2017-07-03T01:55:58.486Z,0
2017-07-03T01:56:24.590Z,0
2017-07-03T01:56:50.710Z,0
2017-07-03T01:57:16.825Z,0
2017-07-03T01:57:42.985Z,0
2017-07-03T01:58:09.109Z,0
2017-07-03T01:58:35.270Z,0
2017-07-03T01:59:01.430Z,0
2017-07-03T01:59:27.605Z,0
2017-07-03T01:59:53.719Z,0
2017-07-03T02:00:19.847Z,0
2017-07-03T02:00:45.961Z,0
2017-07-03T02:01:12.098Z,0
2017-07-03T02:01:38.221Z,0
2017-07-03T02:02:04.310Z,0
2017-07-03T02:02:30.414Z,0
2017-07-03T02:02:56.545Z,0
2017-07-03T02:03:22.666Z,0
2017-07-03T02:03:48.856Z,0
2017-07-03T02:04:15.034Z,0
2017-07-03T02:04:41.204Z,0
2017-07-03T02:05:07.371Z,0
2017-07-03T02:05:33.502Z,0
2017-07-03T02:05:59.701Z,0
2017-07-03T02:06:25.808Z,0
2017-07-03T02:06:51.956Z,0
2017-07-03T02:07:18.123Z,0
2017-07-03T02:07:44.282Z,0
2017-07-03T02:08:10.497Z,0
2017-07-03T02:08:36.644Z,0
2017-07-03T02:09:02.843Z,0
2017-07-03T02:09:29.020Z,0
2017-07-03T02:09:55.132Z,0
2017-07-03T02:10:21.263Z,0
2017-07-03T02:10:47.380Z,0
2017-07-03T02:11:13.499Z,0
2017-07-03T02:11:39.621Z,0
2017-07-03T02:12:05.738Z,0
2017-07-03T02:12:31.858Z,0
2017-07-03T02:12:58.016Z,0
2017-07-03T02:13:24.181Z,0
2017-07-03T02:13:50.377Z,0
2017-07-03T02:14:16.533Z,0
2017-07-03T02:14:42.710Z,0
2017-07-03T02:15:08.831Z,0
2017-07-03T02:15:34.975Z,0
2017-07-03T02:16:01.215Z,0
2017-07-03T02:16:27.361Z,0
2017-07-03T02:16:53.475Z,0
2017-07-03T02:17:19.642Z,0
2017-07-03T02:17:45.783Z,0
2017-07-03T02:18:11.940Z,0
2017-07-03T02:18:38.124Z,0
2017-07-03T02:19:04.289Z,0
2017-07-03T02:19:30.445Z,0
2017-07-03T02:19:56.590Z,0
2017-07-03T02:20:22.735Z,0
2017-07-03T02:20:48.887Z,0
2017-07-03T02:21:15.001Z,0
2017-07-03T02:21:41.152Z,0
2017-07-03T02:22:07.251Z,0
2017-07-03T02:22:33.420Z,0
2017-07-03T02:22:59.559Z,0
2017-07-03T02:23:25.703Z,0
2017-07-03T02:23:51.854Z,0
2017-07-03T02:24:17.957Z,0
2017-07-03T02:24:44.078Z,0
2017-07-03T02:25:10.256Z,4
2017-07-03T02:25:36.383Z,4
2017-07-03T02:26:02.527Z,4
2017-07-03T02:26:28.678Z,4
2017-07-03T02:26:54.837Z,4
2017-07-03T02:27:20.946Z,4
2017-07-03T02:27:47.061Z,0
2017-07-03T02:28:13.258Z,0
2017-07-03T02:28:39.464Z,0
2017-07-03T02:29:05.652Z,0
2017-07-03T02:29:31.790Z,0
2017-07-03T02:29:58.008Z,4
2017-07-03T02:30:24.141Z,4
2017-07-03T02:30:50.310Z,4
2017-07-03T02:31:16.460Z,4
2017-07-03T02:31:42.601Z,4
2017-07-03T02:32:08.703Z,4
2017-07-03T02:32:34.911Z,0
2017-07-03T02:33:01.081Z,4
2017-07-03T02:33:27.211Z,4
2017-07-03T02:33:53.357Z,4
2017-07-03T02:34:19.475Z,4
2017-07-03T02:34:45.651Z,4
2017-07-03T02:35:11.764Z,8
2017-07-03T02:35:37.918Z,4
2017-07-03T02:36:04.094Z,4
2017-07-03T02:36:30.207Z,4
2017-07-03T02:36:56.326Z,8
2017-07-03T02:37:22.458Z,8
2017-07-03T02:37:48.567Z,4
2017-07-03T02:38:14.718Z,8
2017-07-03T02:38:40.824Z,8
2017-07-03T02:39:06.982Z,8
2017-07-03T02:39:33.127Z,8
2017-07-03T02:39:59.267Z,8
2017-07-03T02:40:25.391Z,8
2017-07-03T02:40:51.492Z,12
2017-07-03T02:41:17.657Z,8
2017-07-03T02:41:43.840Z,12
2017-07-03T02:42:09.949Z,12
2017-07-03T02:42:36.078Z,12
2017-07-03T02:43:02.204Z,12
2017-07-03T02:43:28.371Z,12
2017-07-03T02:43:54.504Z,12
2017-07-03T02:44:20.648Z,16
2017-07-03T02:44:46.761Z,16
2017-07-03T02:45:12.870Z,16
2017-07-03T02:45:38.983Z,16
2017-07-03T02:46:05.085Z,16
2017-07-03T02:46:31.235Z,20
2017-07-03T02:46:57.344Z,20
2017-07-03T02:47:23.473Z,20
2017-07-03T02:47:49.593Z,24
2017-07-03T02:48:15.734Z,24
2017-07-03T02:48:41.861Z,24
2017-07-03T02:49:08.060Z,24
2017-07-03T02:49:34.243Z,24
2017-07-03T02:50:00.425Z,28
2017-07-03T02:50:26.543Z,32
2017-07-03T02:50:52.673Z,32
2017-07-03T02:51:18.791Z,36
2017-07-03T02:51:44.932Z,32
2017-07-03T02:52:11.036Z,36
2017-07-03T02:52:37.150Z,36
2017-07-03T02:53:03.269Z,40
2017-07-03T02:53:29.368Z,44
2017-07-03T02:53:55.510Z,44
2017-07-03T02:54:21.632Z,44
2017-07-03T02:54:47.762Z,52
2017-07-03T02:55:13.925Z,52
2017-07-03T02:55:40.072Z,56
2017-07-03T02:56:06.213Z,56
2017-07-03T02:56:32.312Z,60
2017-07-03T02:56:58.464Z,64
2017-07-03T02:57:24.577Z,68
2017-07-03T02:57:50.757Z,72
2017-07-03T02:58:16.910Z,72
2017-07-03T02:58:43.112Z,76
2017-07-03T02:59:09.219Z,80
2017-07-03T02:59:35.390Z,80
2017-07-03T03:00:01.541Z,88
2017-07-03T03:00:27.697Z,92
2017-07-03T03:00:53.867Z,96
2017-07-03T03:01:19.988Z,100
2017-07-03T03:01:46.092Z,104
2017-07-03T03:02:12.205Z,108
2017-07-03T03:02:38.340Z,112
2017-07-03T03:03:04.479Z,120
2017-07-03T03:03:30.629Z,124
2017-07-03T03:03:56.732Z,128
2017-07-03T03:04:22.872Z,132
2017-07-03T03:04:49.054Z,136
2017-07-03T03:05:15.187Z,144
2017-07-03T03:05:41.298Z,152
2017-07-03T03:06:07.416Z,160
2017-07-03T03:06:33.603Z,164
2017-07-03T03:06:59.704Z,172
2017-07-03T03:07:25.822Z,176
2017-07-03T03:07:51.959Z,188
2017-07-03T03:08:18.078Z,196
2017-07-03T03:08:44.238Z,204
2017-07-03T03:09:10.404Z,208
2017-07-03T03:09:36.583Z,216
2017-07-03T03:10:02.689Z,224
2017-07-03T03:10:28.794Z,228
2017-07-03T03:10:54.923Z,240
2017-07-03T03:11:21.053Z,248
2017-07-03T03:11:47.184Z,256
2017-07-03T03:12:13.340Z,264
2017-07-03T03:12:39.444Z,272
2017-07-03T03:13:05.588Z,284
2017-07-03T03:13:31.723Z,292
2017-07-03T03:13:57.883Z,304
2017-07-03T03:14:24.089Z,316
2017-07-03T03:14:50.268Z,324
2017-07-03T03:15:16.403Z,332
2017-07-03T03:15:42.581Z,344
2017-07-03T03:16:08.723Z,352
2017-07-03T03:16:34.828Z,364
2017-07-03T03:17:00.974Z,376
2017-07-03T03:17:27.119Z,388
2017-07-03T03:17:53.220Z,396
2017-07-03T03:18:19.330Z,412
2017-07-03T03:18:45.485Z,424
2017-07-03T03:19:11.638Z,436
2017-07-03T03:19:37.836Z,448
2017-07-03T03:20:03.970Z,460
2017-07-03T03:20:30.111Z,472
2017-07-03T03:20:56.229Z,488
2017-07-03T03:21:22.327Z,500
2017-07-03T03:21:48.440Z,516
2017-07-03T03:22:14.590Z,532
2017-07-03T03:22:40.692Z,544
2017-07-03T03:23:06.853Z,560
2017-07-03T03:23:32.973Z,572
2017-07-03T03:23:59.139Z,588
2017-07-03T03:24:25.284Z,600
2017-07-03T03:24:51.385Z,620
2017-07-03T03:25:17.559Z,636
2017-07-03T03:25:43.710Z,652
2017-07-03T03:26:09.814Z,668
2017-07-03T03:26:35.953Z,684
2017-07-03T03:27:02.136Z,700
2017-07-03T03:27:28.273Z,716
2017-07-03T03:27:54.455Z,732
2017-07-03T03:28:20.630Z,748
2017-07-03T03:28:46.826Z,764
2017-07-03T03:29:12.956Z,780
2017-07-03T03:29:39.162Z,800
2017-07-03T03:30:05.353Z,820
2017-07-03T03:30:31.472Z,836
2017-07-03T03:30:57.607Z,852
2017-07-03T03:31:23.712Z,868
2017-07-03T03:31:49.831Z,888
2017-07-03T03:32:15.945Z,908
2017-07-03T03:32:42.080Z,920
2017-07-03T03:33:08.217Z,940
2017-07-03T03:33:34.329Z,960
2017-07-03T03:34:00.435Z,980
2017-07-03T03:34:26.579Z,1000
2017-07-03T03:34:52.726Z,1020
2017-07-03T03:35:18.831Z,1036
2017-07-03T03:35:44.971Z,1056
2017-07-03T03:36:11.076Z,1072
2017-07-03T03:36:37.193Z,1092
2017-07-03T03:37:03.304Z,1112
2017-07-03T03:37:29.435Z,1132
2017-07-03T03:37:55.638Z,1148
2017-07-03T03:38:21.847Z,1172
2017-07-03T03:38:48.010Z,1188
2017-07-03T03:39:14.171Z,1212
2017-07-03T03:39:40.358Z,1228
2017-07-03T03:40:06.570Z,1248
2017-07-03T03:40:32.686Z,1268
2017-07-03T03:40:58.804Z,1292
2017-07-03T03:41:25.009Z,1308
2017-07-03T03:41:51.132Z,1332
2017-07-03T03:42:17.283Z,1348
2017-07-03T03:42:43.395Z,1368
2017-07-03T03:43:09.528Z,1392
2017-07-03T03:43:35.674Z,1408
2017-07-03T03:44:01.820Z,1432
2017-07-03T03:44:27.949Z,1452
2017-07-03T03:44:54.125Z,1472
2017-07-03T03:45:20.246Z,1492
2017-07-03T03:45:46.348Z,1512
2017-07-03T03:46:12.538Z,1532
2017-07-03T03:46:38.676Z,1552
2017-07-03T03:47:04.820Z,1572
2017-07-03T03:47:30.937Z,1596
2017-07-03T03:47:57.063Z,1612
2017-07-03T03:48:23.220Z,1632
2017-07-03T03:48:49.357Z,1652
2017-07-03T03:49:15.488Z,1676
2017-07-03T03:49:41.654Z,1692
2017-07-03T03:50:07.772Z,1712
2017-07-03T03:50:33.876Z,1736
2017-07-03T03:51:00.069Z,1756
2017-07-03T03:51:26.185Z,1776
2017-07-03T03:51:52.318Z,1800
2017-07-03T03:52:18.494Z,1816
2017-07-03T03:52:44.592Z,1836
2017-07-03T03:53:10.762Z,1856
2017-07-03T03:53:36.910Z,1876
2017-07-03T03:54:03.077Z,1896
2017-07-03T03:54:29.271Z,1916
2017-07-03T03:54:55.453Z,1936
2017-07-03T03:55:21.586Z,1956
2017-07-03T03:55:47.692Z,1972
2017-07-03T03:56:13.843Z,1992
2017-07-03T03:56:39.986Z,2012
2017-07-03T03:57:06.122Z,2032
2017-07-03T03:57:32.240Z,2048
2017-07-03T03:57:58.406Z,2068
2017-07-03T03:58:24.524Z,2088
2017-07-03T03:58:50.692Z,2108
2017-07-03T03:59:16.848Z,2128
2017-07-03T03:59:43.032Z,2144
2017-07-03T04:00:09.140Z,2164
2017-07-03T04:00:35.241Z,2184
2017-07-03T04:01:01.388Z,2204
2017-07-03T04:01:27.503Z,2224
2017-07-03T04:01:53.630Z,2244
2017-07-03T04:02:19.748Z,2268
2017-07-03T04:02:45.866Z,2284
2017-07-03T04:03:12.022Z,2304
2017-07-03T04:03:38.133Z,2324
2017-07-03T04:04:04.237Z,2344
2017-07-03T04:04:30.382Z,2364
2017-07-03T04:04:56.530Z,2384
2017-07-03T04:05:22.668Z,2404
2017-07-03T04:05:48.812Z,2424
2017-07-03T04:06:14.992Z,2440
2017-07-03T04:06:41.095Z,2456
2017-07-03T04:07:07.206Z,2476
2017-07-03T04:07:33.358Z,2492
2017-07-03T04:07:59.460Z,2508
2017-07-03T04:08:25.595Z,2528
2017-07-03T04:08:51.706Z,2552
2017-07-03T04:09:17.851Z,2572
2017-07-03T04:09:44.031Z,2588
2017-07-03T04:10:10.156Z,2608
2017-07-03T04:10:36.266Z,2632
2017-07-03T04:11:02.416Z,2648
2017-07-03T04:11:28.546Z,2672
2017-07-03T04:11:54.707Z,2692
2017-07-03T04:12:20.828Z,2708
2017-07-03T04:12:46.988Z,2728
2017-07-03T04:13:13.125Z,2748
2017-07-03T04:13:39.304Z,2764
2017-07-03T04:14:05.501Z,2780
2017-07-03T04:14:31.639Z,2800
2017-07-03T04:14:57.768Z,2816
2017-07-03T04:15:23.931Z,2828
2017-07-03T04:15:50.050Z,2848
2017-07-03T04:16:16.182Z,2864
2017-07-03T04:16:42.314Z,2880
2017-07-03T04:17:08.436Z,2900
2017-07-03T04:17:34.550Z,2928
2017-07-03T04:18:00.680Z,2948
2017-07-03T04:18:26.831Z,2960
2017-07-03T04:18:53.010Z,2980
2017-07-03T04:19:19.107Z,3004
2017-07-03T04:19:45.250Z,3032
2017-07-03T04:20:11.381Z,3056
2017-07-03T04:20:37.535Z,3076
2017-07-03T04:21:03.644Z,3100
2017-07-03T04:21:29.804Z,3120
2017-07-03T04:21:55.951Z,3140
2017-07-03T04:22:22.095Z,3160
2017-07-03T04:22:48.282Z,3180
2017-07-03T04:23:14.394Z,3204
2017-07-03T04:23:40.543Z,3224
2017-07-03T04:24:06.725Z,3240
2017-07-03T04:24:32.863Z,3260
2017-07-03T04:24:59.043Z,3276
2017-07-03T04:25:25.146Z,3300
2017-07-03T04:25:51.253Z,3324
2017-07-03T04:26:17.374Z,3344
2017-07-03T04:26:43.527Z,3364
2017-07-03T04:27:09.608Z,3388
2017-07-03T04:27:35.761Z,3408
2017-07-03T04:28:01.913Z,3424
2017-07-03T04:28:28.024Z,3444
2017-07-03T04:28:54.186Z,3468
2017-07-03T04:29:20.335Z,3496
2017-07-03T04:29:46.517Z,3524
2017-07-03T04:30:12.635Z,3552
2017-07-03T04:30:38.785Z,3580
2017-07-03T04:31:04.919Z,3604
2017-07-03T04:31:31.056Z,3636
2017-07-03T04:31:57.214Z,3656
2017-07-03T04:32:23.336Z,3684
2017-07-03T04:32:49.480Z,3712
2017-07-03T04:33:15.612Z,3740
2017-07-03T04:33:41.756Z,3796
2017-07-03T04:34:07.907Z,3936
2017-07-03T04:34:34.088Z,4076
2017-07-03T04:35:00.251Z,4212
2017-07-03T04:35:26.365Z,4380
2017-07-03T04:35:52.539Z,4404
2017-07-03T04:36:18.632Z,4576
2017-07-03T04:36:44.741Z,4768
2017-07-03T04:37:10.857Z,4856
2017-07-03T04:37:37.011Z,4876
2017-07-03T04:38:03.222Z,4904
2017-07-03T04:38:29.391Z,4808
2017-07-03T04:38:55.544Z,4680
2017-07-03T04:39:21.709Z,4528
2017-07-03T04:39:47.876Z,4416
2017-07-03T04:40:14.026Z,4380
2017-07-03T04:40:40.131Z,4384
2017-07-03T04:41:06.260Z,4448
2017-07-03T04:41:32.382Z,4548
2017-07-03T04:41:58.523Z,4668
2017-07-03T04:42:24.640Z,4816
2017-07-03T04:42:50.772Z,5040
2017-07-03T04:43:16.884Z,5400
2017-07-03T04:43:43.068Z,6908
2017-07-03T04:44:09.207Z,9584
2017-07-03T04:44:35.309Z,13296
2017-07-03T04:45:01.435Z,17696
2017-07-03T04:45:27.598Z,22432
2017-07-03T04:45:53.703Z,27072
2017-07-03T04:46:19.824Z,29280
2017-07-03T04:46:45.970Z,29952
2017-07-03T04:47:12.072Z,30496
2017-07-03T04:47:38.241Z,30592
2017-07-03T04:48:04.400Z,31264
2017-07-03T04:48:30.555Z,31712
2017-07-03T04:48:56.695Z,31840
2017-07-03T04:49:22.829Z,32448
2017-07-03T04:49:49.032Z,33152
2017-07-03T04:50:15.176Z,33312
2017-07-03T04:50:41.355Z,34144
2017-07-03T04:51:07.472Z,35008
2017-07-03T04:51:33.623Z,35104
2017-07-03T04:51:59.728Z,34784
2017-07-03T04:52:25.897Z,34272
2017-07-03T04:52:52.109Z,33760
2017-07-03T04:53:18.214Z,33376
2017-07-03T04:53:44.332Z,33504
2017-07-03T04:54:10.494Z,33568
2017-07-03T04:54:36.696Z,33536
2017-07-03T04:55:02.849Z,34016
2017-07-03T04:55:28.949Z,34464
2017-07-03T04:55:55.063Z,35616
2017-07-03T04:56:21.212Z,35936
2017-07-03T04:56:47.316Z,35648
2017-07-03T04:57:13.452Z,34112
2017-07-03T04:57:39.606Z,33056
2017-07-03T04:58:05.714Z,32768
2017-07-03T04:58:31.848Z,33120
2017-07-03T04:58:57.996Z,34048
2017-07-03T04:59:24.114Z,35904
2017-07-03T04:59:50.263Z,37536
2017-07-03T05:00:16.366Z,38880
2017-07-03T05:00:42.530Z,39328
2017-07-03T05:01:08.685Z,39424
2017-07-03T05:01:34.856Z,39008
2017-07-03T05:02:00.985Z,38912
2017-07-03T05:02:27.166Z,39200
2017-07-03T05:02:53.339Z,39424
2017-07-03T05:03:19.475Z,39936
2017-07-03T05:03:45.624Z,40832
2017-07-03T05:04:11.801Z,41312
2017-07-03T05:04:37.970Z,41504
2017-07-03T05:05:04.108Z,40928
2017-07-03T05:05:30.240Z,40288
2017-07-03T05:05:56.396Z,40000
2017-07-03T05:06:22.565Z,40320
2017-07-03T05:06:48.693Z,41248
2017-07-03T05:07:14.813Z,41952
2017-07-03T05:07:40.930Z,41856
2017-07-03T05:08:07.119Z,42112
2017-07-03T05:08:33.381Z,42336
2017-07-03T05:08:59.598Z,43008
2017-07-03T05:09:25.701Z,42240
2017-07-03T05:09:51.901Z,40448
2017-07-03T05:10:18.160Z,38048
2017-07-03T05:10:44.214Z,35456
2017-07-03T05:11:10.354Z,32800
2017-07-03T05:11:36.510Z,29824
2017-07-03T05:12:02.649Z,26848
2017-07-03T05:12:28.753Z,23264
2017-07-03T05:12:54.905Z,20064
2017-07-03T05:13:21.015Z,17248
2017-07-03T05:13:47.159Z,14092
2017-07-03T05:14:13.243Z,11652
2017-07-03T05:14:39.395Z,9696
2017-07-03T05:15:05.527Z,8472
2017-07-03T05:15:31.644Z,8092
2017-07-03T05:15:57.809Z,7972
2017-07-03T05:16:23.962Z,7860
2017-07-03T05:16:50.104Z,7780
2017-07-03T05:17:16.209Z,7732
2017-07-03T05:17:42.390Z,7704
2017-07-03T05:18:08.567Z,7672
2017-07-03T05:18:34.726Z,7644
2017-07-03T05:19:00.866Z,7624
2017-07-03T05:19:27.050Z,7600
2017-07-03T05:19:53.209Z,7580
2017-07-03T05:20:19.324Z,7556
2017-07-03T05:20:45.476Z,7552
2017-07-03T05:21:11.580Z,7548
2017-07-03T05:21:37.754Z,7536
2017-07-03T05:22:03.911Z,7520
2017-07-03T05:22:30.029Z,7488
2017-07-03T05:22:56.179Z,7464
2017-07-03T05:23:22.313Z,7436
2017-07-03T05:23:48.480Z,7408
2017-07-03T05:24:14.636Z,7376
2017-07-03T05:24:40.854Z,7340
2017-07-03T05:25:06.991Z,7312
2017-07-03T05:25:33.142Z,7284
2017-07-03T05:25:59.317Z,7240
2017-07-03T05:26:25.419Z,7208
2017-07-03T05:26:51.563Z,7180
2017-07-03T05:27:17.676Z,7148
2017-07-03T05:27:43.830Z,7120
2017-07-03T05:28:09.935Z,7084
2017-07-03T05:28:36.074Z,7056
2017-07-03T05:29:02.226Z,7048
2017-07-03T05:29:28.390Z,7040
2017-07-03T05:29:54.583Z,7024
2017-07-03T05:30:20.763Z,7012
2017-07-03T05:30:46.905Z,7000
2017-07-03T05:31:13.035Z,6988
2017-07-03T05:31:39.161Z,6972
2017-07-03T05:32:05.270Z,6948
2017-07-03T05:32:31.408Z,6912
2017-07-03T05:32:57.546Z,6892
2017-07-03T05:33:23.657Z,6880
2017-07-03T05:33:49.894Z,6864
2017-07-03T05:34:16.041Z,6840
2017-07-03T05:34:42.279Z,6808
2017-07-03T05:35:08.426Z,6776
2017-07-03T05:35:34.572Z,6744
2017-07-03T05:36:00.677Z,6716
2017-07-03T05:36:26.864Z,6692
2017-07-03T05:36:52.999Z,6668
2017-07-03T05:37:19.104Z,6652
2017-07-03T05:37:45.248Z,6640
2017-07-03T05:38:11.358Z,6644
2017-07-03T05:38:37.502Z,6620
2017-07-03T05:39:03.649Z,6600
2017-07-03T05:39:29.779Z,6584
2017-07-03T05:39:55.896Z,6564
2017-07-03T05:40:22.017Z,6560
2017-07-03T05:40:48.122Z,6564
2017-07-03T05:41:14.234Z,6576
2017-07-03T05:41:40.355Z,6572
2017-07-03T05:42:06.562Z,6564
2017-07-03T05:42:32.705Z,6556
2017-07-03T05:42:58.885Z,6564
2017-07-03T05:43:25.074Z,6560
2017-07-03T05:43:51.198Z,6560
2017-07-03T05:44:17.297Z,6576
2017-07-03T05:44:43.411Z,6600
2017-07-03T05:45:09.624Z,6616
2017-07-03T05:45:35.729Z,6612
2017-07-03T05:46:01.839Z,6628
2017-07-03T05:46:27.959Z,6644
2017-07-03T05:46:54.153Z,6360
2017-07-03T05:47:20.285Z,6364
2017-07-03T05:47:46.440Z,6368
2017-07-03T05:48:12.642Z,6380
2017-07-03T05:48:38.830Z,6404
2017-07-03T05:49:05.004Z,6424
2017-07-03T05:49:31.167Z,6452
2017-07-03T05:49:57.351Z,6472
2017-07-03T05:50:23.462Z,6480
2017-07-03T05:50:49.566Z,6472
2017-07-03T05:51:15.749Z,6488
2017-07-03T05:51:41.920Z,6512
2017-07-03T05:52:08.056Z,6540
2017-07-03T05:52:34.173Z,6564
2017-07-03T05:53:00.288Z,6580
2017-07-03T05:53:26.418Z,6592
2017-07-03T05:53:52.598Z,6628
2017-07-03T05:54:18.718Z,6680
2017-07-03T05:54:44.844Z,6696
2017-07-03T05:55:10.987Z,6688
2017-07-03T05:55:37.111Z,6660
2017-07-03T05:56:03.378Z,6652
2017-07-03T05:56:29.538Z,6672
2017-07-03T05:56:55.720Z,6688
2017-07-03T05:57:21.830Z,6704
2017-07-03T05:57:47.985Z,6688
2017-07-03T05:58:14.145Z,6676
2017-07-03T05:58:40.283Z,6624
2017-07-03T05:59:06.448Z,6600
2017-07-03T05:59:32.602Z,6604
2017-07-03T05:59:58.782Z,6644
2017-07-03T06:00:24.948Z,6640
2017-07-03T06:00:51.058Z,6664
2017-07-03T06:01:17.212Z,6676
2017-07-03T06:01:43.339Z,6648
2017-07-03T06:02:09.450Z,6648
2017-07-03T06:02:35.576Z,6640
2017-07-03T06:03:01.695Z,6608
2017-07-03T06:03:27.812Z,6576
2017-07-03T06:03:53.967Z,6540
2017-07-03T06:04:20.105Z,6540
2017-07-03T06:04:46.286Z,6584
2017-07-03T06:05:12.472Z,6576